createdAt,value
2022-07-31T00:00:12.491Z,100052.84
2022-07-31T00:02:39.391Z,100048.28
2022-07-31T00:05:06.539Z,100040.47
2022-07-31T00:07:33.775Z,100050.16
2022-07-31T00:10:00.460Z,100053.06
2022-07-31T00:12:27.134Z,100053.88
2022-07-31T00:14:53.854Z,100050.47
2022-07-31T00:17:20.708Z,100043.47
2022-07-31T00:19:47.379Z,100008.06
2022-07-31T00:22:14.153Z,100038.34
2022-07-31T00:24:40.823Z,100027.47
2022-07-31T00:27:07.840Z,100015.31
2022-07-31T00:29:34.510Z,100027.69
2022-07-31T00:32:01.232Z,100033.41
2022-07-31T00:34:28.073Z,100006.03
2022-07-31T00:36:54.743Z,100026.19
2022-07-31T00:39:21.422Z,100041.13
2022-07-31T00:41:49.479Z,100003.88
2022-07-31T00:44:16.201Z,100042.31
2022-07-31T00:46:45.162Z,100032.41
2022-07-31T00:49:12.028Z,99997.47
2022-07-31T00:51:40.240Z,100033.88
2022-07-31T00:54:08.363Z,100041.25
2022-07-31T00:56:35.776Z,100045.81
2022-07-31T00:59:03.685Z,100034.88
2022-07-31T01:01:30.931Z,100041.38
2022-07-31T01:03:58.084Z,100006.59
2022-07-31T01:06:24.720Z,100008.44
2022-07-31T01:08:51.379Z,100002.47
2022-07-31T01:11:33.043Z,100037.16
2022-07-31T01:14:02.828Z,100024.09
2022-07-31T01:16:39.113Z,100019.88
2022-07-31T01:19:15.399Z,100028.53
2022-07-31T01:22:33.024Z,100027.38
2022-07-31T01:25:00.916Z,100034.72
2022-07-31T01:27:52.459Z,100033.91
2022-07-31T01:30:25.585Z,100031.31
2022-07-31T01:32:57.850Z,100031.41
2022-07-31T01:35:32.595Z,100017.78
2022-07-31T01:38:12.941Z,99996.44
2022-07-31T01:40:49.064Z,100038.69
2022-07-31T01:43:22.187Z,100031.31
2022-07-31T01:45:53.210Z,100028.16
2022-07-31T01:48:20.795Z,100031.50
2022-07-31T01:50:49.515Z,100027.78
2022-07-31T01:53:21.297Z,100032.09
2022-07-31T01:56:03.037Z,100002.78
2022-07-31T01:58:37.928Z,100026.38
2022-07-31T02:01:11.790Z,100028.41
2022-07-31T02:03:42.703Z,100028.94
2022-07-31T02:06:11.876Z,100022.28
2022-07-31T02:08:38.955Z,100003.34
2022-07-31T02:11:06.016Z,99973.78
2022-07-31T02:13:37.243Z,100019.63
2022-07-31T02:16:05.662Z,100018.50
2022-07-31T02:18:35.517Z,100010.31
2022-07-31T02:21:15.009Z,100000.97
2022-07-31T02:23:41.873Z,100018.75
2022-07-31T02:26:09.043Z,99993.75
2022-07-31T02:28:38.168Z,100034.19
2022-07-31T02:31:10.210Z,100024.13
2022-07-31T02:33:38.416Z,100022.78
2022-07-31T02:36:06.566Z,100032.47
2022-07-31T02:38:35.350Z,100021.44
2022-07-31T02:41:05.015Z,99967.69
2022-07-31T02:43:34.797Z,100002.38
2022-07-31T02:46:12.461Z,100011.47
2022-07-31T02:48:40.094Z,99966.00
2022-07-31T02:51:09.623Z,99996.78
2022-07-31T02:53:40.072Z,100016.00
2022-07-31T02:56:10.013Z,100017.41
2022-07-31T02:58:41.906Z,100026.59
2022-07-31T03:01:14.331Z,99953.72
2022-07-31T03:03:42.183Z,99979.81
2022-07-31T03:06:10.840Z,99911.94
2022-07-31T03:08:38.451Z,99995.84
2022-07-31T03:11:06.211Z,100000.91
2022-07-31T03:13:36.608Z,99970.16
2022-07-31T03:16:07.265Z,99989.16
2022-07-31T03:18:35.112Z,100007.09
2022-07-31T03:21:01.892Z,100006.31
2022-07-31T03:23:36.251Z,100015.75
2022-07-31T03:26:10.677Z,100009.88
2022-07-31T03:28:38.156Z,100016.06
2022-07-31T03:31:04.884Z,100010.78
2022-07-31T03:33:31.737Z,100004.94
2022-07-31T03:35:59.014Z,100020.13
2022-07-31T03:38:39.199Z,100025.66
2022-07-31T03:41:10.946Z,100018.75
2022-07-31T03:43:44.458Z,99984.56
2022-07-31T03:46:17.064Z,100015.88
2022-07-31T03:48:44.957Z,100025.66
2022-07-31T03:51:13.237Z,99999.19
2022-07-31T03:53:41.320Z,100017.75
2022-07-31T03:56:09.968Z,100022.69
2022-07-31T03:58:38.549Z,100021.72
2022-07-31T04:01:10.594Z,100018.97
2022-07-31T04:03:39.495Z,100029.47
2022-07-31T04:06:32.162Z,99998.88
2022-07-31T04:09:01.472Z,100005.75
2022-07-31T04:11:46.706Z,100018.53
2022-07-31T04:14:13.473Z,99945.09
2022-07-31T04:16:40.179Z,99975.63
2022-07-31T04:19:07.374Z,100012.38
2022-07-31T04:21:34.114Z,100020.84
2022-07-31T04:24:04.824Z,100015.69
2022-07-31T04:26:50.560Z,100016.44
2022-07-31T04:29:18.378Z,100021.81
2022-07-31T04:31:45.667Z,100028.41
2022-07-31T04:34:16.055Z,100029.72
2022-07-31T04:36:43.720Z,100020.41
2022-07-31T04:39:10.572Z,100019.03
2022-07-31T04:41:37.291Z,100022.41
2022-07-31T04:44:04.097Z,99994.94
2022-07-31T04:46:45.551Z,100017.28
2022-07-31T04:49:14.975Z,100034.41
2022-07-31T04:51:42.717Z,99998.66
2022-07-31T04:54:10.761Z,100041.03
2022-07-31T04:56:41.752Z,100036.47
2022-07-31T04:59:11.720Z,100035.69
2022-07-31T05:01:42.219Z,100035.19
2022-07-31T05:04:10.707Z,100025.81
2022-07-31T05:06:39.724Z,100041.38
2022-07-31T05:09:12.569Z,100043.91
2022-07-31T05:11:45.967Z,100042.28
2022-07-31T05:14:14.011Z,100044.72
2022-07-31T05:16:40.878Z,100033.28
2022-07-31T05:19:14.877Z,100042.13
2022-07-31T05:22:17.046Z,100040.50
2022-07-31T05:25:03.036Z,100046.69
2022-07-31T05:27:32.131Z,100047.41
2022-07-31T05:29:59.035Z,100045.69
2022-07-31T05:32:25.795Z,100049.78
2022-07-31T05:34:53.120Z,100034.50
2022-07-31T05:37:20.216Z,100044.84
2022-07-31T05:39:47.006Z,100031.06
2022-07-31T05:42:32.009Z,100041.41
2022-07-31T05:45:17.193Z,100054.91
2022-07-31T05:47:43.853Z,100048.72
2022-07-31T05:50:10.669Z,100020.91
2022-07-31T05:52:37.985Z,100023.28
2022-07-31T05:55:39.897Z,100048.75
2022-07-31T05:58:19.847Z,100051.22
2022-07-31T06:00:48.837Z,100050.75
2022-07-31T06:03:16.502Z,100053.53
2022-07-31T06:05:56.713Z,100026.06
2022-07-31T06:08:23.500Z,99986.47
2022-07-31T06:10:51.578Z,100016.06
2022-07-31T06:13:19.397Z,100008.38
2022-07-31T06:15:49.422Z,100066.75
2022-07-31T06:18:16.563Z,100045.72
2022-07-31T06:20:43.294Z,100056.84
2022-07-31T06:23:22.488Z,100053.06
2022-07-31T06:25:53.139Z,100045.81
2022-07-31T06:28:20.337Z,100057.06
2022-07-31T06:30:55.734Z,100066.16
2022-07-31T06:33:37.525Z,100064.03
2022-07-31T06:36:04.746Z,100039.69
2022-07-31T06:38:38.261Z,100051.75
2022-07-31T06:41:49.558Z,100036.81
2022-07-31T06:44:29.629Z,100056.00
2022-07-31T06:47:16.494Z,100049.66
2022-07-31T06:49:55.511Z,100048.72
2022-07-31T06:52:26.116Z,100050.63
2022-07-31T06:54:53.612Z,100055.84
2022-07-31T06:57:29.434Z,100054.28
2022-07-31T06:59:56.253Z,100052.41
2022-07-31T07:02:23.924Z,100032.00
2022-07-31T07:05:06.200Z,100032.22
2022-07-31T07:07:35.775Z,100046.34
2022-07-31T07:10:05.476Z,100045.78
2022-07-31T07:12:51.065Z,100039.25
2022-07-31T07:15:18.196Z,100060.38
2022-07-31T07:17:45.131Z,100050.50
2022-07-31T07:20:25.996Z,100039.25
2022-07-31T07:22:52.728Z,100035.91
2022-07-31T07:25:34.489Z,100027.03
2022-07-31T07:28:01.521Z,100029.09
2022-07-31T07:30:28.823Z,100039.25
2022-07-31T07:32:59.739Z,100024.75
2022-07-31T07:35:32.024Z,100039.25
2022-07-31T07:38:00.982Z,100047.91
2022-07-31T07:40:29.402Z,99962.66
2022-07-31T07:42:59.950Z,100040.59
2022-07-31T07:45:29.768Z,100047.47
2022-07-31T07:48:06.868Z,100027.16
2022-07-31T07:50:47.799Z,100033.72
2022-07-31T07:53:27.635Z,100021.16
2022-07-31T07:56:14.928Z,100038.53
2022-07-31T07:59:07.497Z,100045.13
2022-07-31T08:02:01.134Z,100044.63
2022-07-31T08:04:30.794Z,100022.97
2022-07-31T08:06:57.979Z,100022.94
2022-07-31T08:09:28.569Z,100012.34
2022-07-31T08:12:13.883Z,100010.16
2022-07-31T08:15:09.849Z,100005.00
2022-07-31T08:17:54.456Z,100013.00
2022-07-31T08:20:22.149Z,100014.56
2022-07-31T08:22:50.097Z,100004.56
2022-07-31T08:25:16.896Z,99994.22
2022-07-31T08:27:47.856Z,100008.81
2022-07-31T08:30:15.769Z,99992.84
2022-07-31T08:32:42.691Z,99989.84
2022-07-31T08:35:29.965Z,100004.56
2022-07-31T08:38:03.878Z,99997.56
2022-07-31T08:40:43.155Z,99993.69
2022-07-31T08:43:59.599Z,99976.09
2022-07-31T08:46:02.616Z,99993.06
2022-07-31T08:48:33.362Z,99988.41
2022-07-31T08:51:03.633Z,99974.16
2022-07-31T08:53:51.045Z,99978.47
2022-07-31T08:56:20.382Z,99985.38
2022-07-31T08:58:47.116Z,99979.03
2022-07-31T09:01:15.081Z,99978.97
2022-07-31T09:03:42.236Z,99964.47
2022-07-31T09:06:13.483Z,99973.25
2022-07-31T09:08:42.561Z,99972.63
2022-07-31T09:11:12.064Z,99968.22
2022-07-31T09:14:01.767Z,99959.84
2022-07-31T09:16:50.127Z,99956.00
2022-07-31T09:19:53.710Z,99931.50
2022-07-31T09:22:26.910Z,99945.72
2022-07-31T09:25:11.949Z,99945.31
2022-07-31T09:27:39.691Z,99936.84
2022-07-31T09:30:07.460Z,99935.50
2022-07-31T09:32:57.388Z,99949.38
2022-07-31T09:35:51.999Z,99928.03
2022-07-31T09:38:19.868Z,99925.97
2022-07-31T09:42:00.218Z,99924.53
2022-07-31T09:44:35.888Z,99923.66
2022-07-31T09:47:02.974Z,99923.91
2022-07-31T09:49:31.804Z,99925.81
2022-07-31T09:52:00.592Z,99900.09
2022-07-31T09:54:31.258Z,99915.06
2022-07-31T09:57:12.859Z,99915.19
2022-07-31T09:59:42.886Z,99911.72
2022-07-31T10:02:14.064Z,99910.78
2022-07-31T10:04:42.955Z,99904.84
2022-07-31T10:07:31.510Z,99895.00
2022-07-31T10:10:08.332Z,99910.31
2022-07-31T10:12:47.888Z,99910.28
2022-07-31T10:15:17.631Z,99903.16
2022-07-31T10:17:51.560Z,99900.25
2022-07-31T10:20:39.667Z,99893.84
2022-07-31T10:23:29.005Z,99891.72
2022-07-31T10:26:01.330Z,99855.94
2022-07-31T10:28:31.940Z,99877.69
2022-07-31T10:30:59.011Z,99887.91
2022-07-31T10:33:43.758Z,99872.63
2022-07-31T10:36:38.036Z,99866.25
2022-07-31T10:39:19.788Z,99858.97
2022-07-31T10:42:15.523Z,99868.63
2022-07-31T10:44:58.695Z,99860.41
2022-07-31T10:47:34.109Z,99854.66
2022-07-31T10:50:31.525Z,99854.94
2022-07-31T10:53:09.606Z,99844.78
2022-07-31T10:56:13.559Z,99852.84
2022-07-31T10:59:11.130Z,99845.94
2022-07-31T11:02:05.627Z,99851.91
2022-07-31T11:05:07.016Z,99828.22
2022-07-31T11:08:07.829Z,99766.94
2022-07-31T11:10:56.074Z,99836.91
2022-07-31T11:13:50.684Z,99827.38
2022-07-31T11:16:34.750Z,99800.63
2022-07-31T11:19:14.877Z,99821.72
2022-07-31T11:21:42.222Z,99818.16
2022-07-31T11:24:17.427Z,99821.41
2022-07-31T11:26:54.537Z,99820.63
2022-07-31T11:29:58.838Z,99816.94
2022-07-31T11:32:25.408Z,99808.06
2022-07-31T11:34:57.143Z,99801.75
2022-07-31T11:37:30.620Z,99808.56
2022-07-31T11:40:12.846Z,99809.19
2022-07-31T11:42:55.885Z,99821.72
2022-07-31T11:45:45.543Z,99818.66
2022-07-31T11:48:16.073Z,99794.66
2022-07-31T11:50:47.169Z,99806.44
2022-07-31T11:53:14.396Z,99799.19
2022-07-31T11:55:53.137Z,99789.00
2022-07-31T11:58:21.561Z,99788.69
2022-07-31T12:00:58.891Z,99768.88
2022-07-31T12:03:31.661Z,99754.53
2022-07-31T12:05:59.032Z,99779.84
2022-07-31T12:08:27.759Z,99773.38
2022-07-31T12:10:56.997Z,99775.09
2022-07-31T12:13:24.642Z,99764.00
2022-07-31T12:16:09.359Z,99766.97
2022-07-31T12:18:48.122Z,99765.22
2022-07-31T12:21:19.691Z,99742.94
2022-07-31T12:23:47.845Z,99758.03
2022-07-31T12:26:31.936Z,99756.88
2022-07-31T12:29:11.082Z,99746.78
2022-07-31T12:31:52.429Z,99752.47
2022-07-31T12:34:38.777Z,99743.25
2022-07-31T12:37:15.506Z,99738.00
2022-07-31T12:39:59.441Z,99730.25
2022-07-31T12:42:35.321Z,99725.63
2022-07-31T12:45:18.094Z,99728.38
2022-07-31T12:47:52.063Z,99725.34
2022-07-31T12:50:40.535Z,99715.66
2022-07-31T12:53:07.233Z,99693.06
2022-07-31T12:55:34.215Z,99713.44
2022-07-31T12:58:00.990Z,99716.38
2022-07-31T13:00:29.014Z,99724.28
2022-07-31T13:02:57.494Z,99712.16
2022-07-31T13:05:25.412Z,99723.28
2022-07-31T13:07:52.958Z,99712.41
2022-07-31T13:10:24.007Z,99692.06
2022-07-31T13:12:51.914Z,99695.34
2022-07-31T13:15:20.019Z,99688.75
2022-07-31T13:17:50.576Z,99681.94
2022-07-31T13:20:38.898Z,99674.97
2022-07-31T13:23:05.704Z,99655.13
2022-07-31T13:25:32.687Z,99679.72
2022-07-31T13:27:59.807Z,99667.38
2022-07-31T13:30:28.239Z,99676.94
2022-07-31T13:32:55.727Z,99669.09
2022-07-31T13:35:28.514Z,99643.84
2022-07-31T13:37:56.517Z,99668.28
2022-07-31T13:40:42.578Z,99658.53
2022-07-31T13:43:09.816Z,99630.16
2022-07-31T13:45:37.091Z,99659.72
2022-07-31T13:48:08.965Z,99641.81
2022-07-31T13:50:37.457Z,99651.41
2022-07-31T13:53:04.663Z,99638.63
2022-07-31T13:55:31.932Z,99630.56
2022-07-31T13:57:59.843Z,99637.31
2022-07-31T14:00:29.570Z,99648.66
2022-07-31T14:02:57.009Z,99603.00
2022-07-31T14:05:26.713Z,99619.94
2022-07-31T14:07:55.491Z,99628.44
2022-07-31T14:10:23.600Z,99645.06
2022-07-31T14:12:50.604Z,99645.31
2022-07-31T14:15:20.186Z,99618.97
2022-07-31T14:17:47.141Z,99625.50
2022-07-31T14:20:14.124Z,99627.53
2022-07-31T14:22:42.155Z,99626.06
2022-07-31T14:25:12.233Z,99605.91
2022-07-31T14:27:39.703Z,99601.97
2022-07-31T14:30:10.005Z,99619.06
2022-07-31T14:32:36.769Z,99617.34
2022-07-31T14:35:08.167Z,99618.59
2022-07-31T14:37:35.709Z,99605.84
2022-07-31T14:40:03.628Z,99611.59
2022-07-31T14:42:30.482Z,99614.91
2022-07-31T14:44:58.727Z,99555.34
2022-07-31T14:47:26.085Z,99624.41
2022-07-31T14:50:06.582Z,99613.97
2022-07-31T14:52:37.031Z,99605.31
2022-07-31T14:55:04.009Z,99598.31
2022-07-31T14:57:31.484Z,99597.19
2022-07-31T14:59:58.524Z,99594.81
2022-07-31T15:02:25.584Z,99602.66
2022-07-31T15:04:53.269Z,99586.09
2022-07-31T15:07:39.478Z,99596.75
2022-07-31T15:10:08.801Z,99585.28
2022-07-31T15:12:35.662Z,99583.44
2022-07-31T15:15:02.439Z,99593.31
2022-07-31T15:17:29.355Z,99585.91
2022-07-31T15:19:56.142Z,99570.16
2022-07-31T15:22:22.969Z,99576.88
2022-07-31T15:24:52.540Z,99584.66
2022-07-31T15:27:21.778Z,99570.25
2022-07-31T15:30:04.799Z,99587.34
2022-07-31T15:32:38.705Z,99590.66
2022-07-31T15:35:07.935Z,99580.50
2022-07-31T15:37:36.957Z,99585.53
2022-07-31T15:40:07.033Z,99559.66
2022-07-31T15:42:38.326Z,99554.06
2022-07-31T15:45:07.473Z,99578.53
2022-07-31T15:47:34.347Z,99541.31
2022-07-31T15:50:01.176Z,99568.00
2022-07-31T15:52:27.891Z,99555.91
2022-07-31T15:54:54.699Z,99559.47
2022-07-31T15:57:22.488Z,99571.22
2022-07-31T15:59:49.960Z,99559.78
2022-07-31T16:02:17.715Z,99564.50
2022-07-31T16:04:51.939Z,99555.41
2022-07-31T16:08:31.722Z,99548.88
2022-07-31T16:10:15.241Z,99548.75
2022-07-31T16:12:45.576Z,99539.94
2022-07-31T16:15:13.147Z,99521.66
2022-07-31T16:17:40.399Z,99506.50
2022-07-31T16:20:13.291Z,99537.44
2022-07-31T16:22:58.060Z,99539.88
2022-07-31T16:25:26.003Z,99528.72
2022-07-31T16:27:52.931Z,99508.69
2022-07-31T16:30:20.436Z,99523.22
2022-07-31T16:32:47.716Z,99523.78
2022-07-31T16:35:14.623Z,99528.75
2022-07-31T16:37:52.687Z,99518.38
2022-07-31T16:40:31.032Z,99524.13
2022-07-31T16:43:48.147Z,99515.91
2022-07-31T16:45:50.822Z,99517.47
2022-07-31T16:48:17.843Z,99507.56
2022-07-31T16:50:45.833Z,99524.34
2022-07-31T16:54:09.862Z,99494.09
2022-07-31T16:56:06.565Z,99523.28
2022-07-31T16:58:33.344Z,99501.91
2022-07-31T17:01:00.433Z,99514.28
2022-07-31T17:03:58.984Z,99526.16
2022-07-31T17:06:13.855Z,99523.72
2022-07-31T17:08:40.699Z,99523.63
2022-07-31T17:11:07.438Z,99513.94
2022-07-31T17:13:34.085Z,99514.25
2022-07-31T17:16:19.588Z,99516.72
2022-07-31T17:18:52.367Z,99498.34
2022-07-31T17:21:22.928Z,99507.69
2022-07-31T17:23:52.782Z,99512.81
2022-07-31T17:26:21.087Z,99514.00
2022-07-31T17:28:48.855Z,99528.22
2022-07-31T17:31:15.583Z,99507.97
2022-07-31T17:33:58.345Z,99480.22
2022-07-31T17:36:29.156Z,99521.31
2022-07-31T17:38:57.127Z,99521.78
2022-07-31T17:41:25.190Z,99506.97
2022-07-31T17:43:56.392Z,99517.56
2022-07-31T17:46:34.570Z,99517.75
2022-07-31T17:49:06.098Z,99535.28
2022-07-31T17:51:33.284Z,99525.91
2022-07-31T17:54:00.588Z,99543.59
2022-07-31T17:56:27.547Z,99532.59
2022-07-31T17:58:55.559Z,99543.56
2022-07-31T18:01:26.971Z,99539.31
2022-07-31T18:03:56.063Z,99552.97
2022-07-31T18:06:22.921Z,99552.38
2022-07-31T18:08:49.742Z,99548.56
2022-07-31T18:11:16.522Z,99546.50
2022-07-31T18:13:48.658Z,99544.41
2022-07-31T18:16:19.119Z,99556.97
2022-07-31T18:18:46.505Z,99551.28
2022-07-31T18:21:14.106Z,99544.06
2022-07-31T18:23:47.277Z,99560.94
2022-07-31T18:26:15.020Z,99554.00
2022-07-31T18:28:44.181Z,99450.53
2022-07-31T18:31:32.035Z,99565.47
2022-07-31T18:34:06.456Z,99566.28
2022-07-31T18:36:36.191Z,99564.00
2022-07-31T18:39:04.509Z,99552.81
2022-07-31T18:41:31.601Z,99571.81
2022-07-31T18:43:59.550Z,99552.47
2022-07-31T18:46:55.895Z,99503.06
2022-07-31T18:50:59.709Z,99578.84
2022-07-31T18:52:19.914Z,99559.47
2022-07-31T18:54:48.569Z,99582.97
2022-07-31T18:57:19.175Z,99579.91
2022-07-31T18:59:46.566Z,99555.97
2022-07-31T19:02:23.192Z,99549.69
2022-07-31T19:05:02.129Z,99554.50
2022-07-31T19:07:36.010Z,99587.84
2022-07-31T19:10:07.813Z,99576.00
2022-07-31T19:12:35.419Z,99591.75
2022-07-31T19:15:05.341Z,99558.50
2022-07-31T19:17:44.364Z,99599.00
2022-07-31T19:20:12.614Z,99566.84
2022-07-31T19:22:59.303Z,99506.44
2022-07-31T19:25:26.113Z,99608.94
2022-07-31T19:28:06.252Z,99610.56
2022-07-31T19:30:45.443Z,99584.41
2022-07-31T19:33:14.109Z,99603.19
2022-07-31T19:35:55.143Z,99609.84
2022-07-31T19:38:29.705Z,99624.34
2022-07-31T19:40:56.716Z,99591.69
2022-07-31T19:43:23.951Z,99611.41
2022-07-31T19:45:57.704Z,99587.34
2022-07-31T19:48:49.569Z,99632.16
2022-07-31T19:51:18.557Z,99599.25
2022-07-31T19:53:49.575Z,99614.59
2022-07-31T19:56:20.699Z,99609.09
2022-07-31T19:58:52.157Z,99591.59
2022-07-31T20:01:20.356Z,99629.97
2022-07-31T20:03:48.701Z,99633.00
2022-07-31T20:06:15.842Z,99624.81
2022-07-31T20:08:42.670Z,99651.44
2022-07-31T20:11:12.104Z,99627.78
2022-07-31T20:13:38.997Z,99645.88
2022-07-31T20:16:06.454Z,99618.63
2022-07-31T20:18:36.084Z,99649.97
2022-07-31T20:21:08.976Z,99654.53
2022-07-31T20:23:41.739Z,99644.31
2022-07-31T20:26:10.789Z,99662.16
2022-07-31T20:28:40.148Z,99648.34
2022-07-31T20:31:20.152Z,99647.28
2022-07-31T20:33:57.094Z,99621.88
2022-07-31T20:36:26.170Z,99657.25
2022-07-31T20:38:53.014Z,99654.53
2022-07-31T20:41:20.087Z,99642.44
2022-07-31T20:43:46.913Z,99649.47
2022-07-31T20:46:15.692Z,99658.44
2022-07-31T20:48:44.459Z,99649.53
2022-07-31T20:51:19.135Z,99660.91
2022-07-31T20:53:47.810Z,99654.75
2022-07-31T20:56:15.681Z,99664.19
2022-07-31T20:58:42.755Z,99665.84
2022-07-31T21:01:22.000Z,99677.78
2022-07-31T21:03:49.200Z,99634.34
2022-07-31T21:06:16.489Z,99650.25
2022-07-31T21:08:43.245Z,99653.56
2022-07-31T21:11:09.926Z,99681.16
2022-07-31T21:13:36.822Z,99679.81
2022-07-31T21:16:04.067Z,99675.25
2022-07-31T21:18:35.782Z,99660.13
2022-07-31T21:21:04.443Z,99653.91
2022-07-31T21:23:31.621Z,99668.53
2022-07-31T21:25:59.059Z,99691.56
2022-07-31T21:28:27.636Z,99690.25
2022-07-31T21:30:56.226Z,99693.25
2022-07-31T21:33:27.188Z,99671.66
2022-07-31T21:35:55.457Z,99692.22
2022-07-31T21:38:22.835Z,99706.84
2022-07-31T21:40:50.438Z,99701.75
2022-07-31T21:43:22.102Z,99698.00
2022-07-31T21:45:57.919Z,99705.88
2022-07-31T21:48:29.772Z,99694.31
2022-07-31T21:50:57.207Z,99717.06
2022-07-31T21:53:24.550Z,99711.94
2022-07-31T21:55:51.763Z,99719.25
2022-07-31T21:58:19.169Z,99727.66
2022-07-31T22:00:46.193Z,99723.88
2022-07-31T22:03:13.002Z,99689.28
2022-07-31T22:05:58.657Z,99727.97
2022-07-31T22:08:25.466Z,99742.84
2022-07-31T22:10:53.033Z,99714.66
2022-07-31T22:13:20.647Z,99719.50
2022-07-31T22:15:51.349Z,99734.66
2022-07-31T22:18:28.207Z,99730.84
2022-07-31T22:20:55.053Z,99741.38
2022-07-31T22:23:23.176Z,99738.91
2022-07-31T22:25:50.005Z,99725.31
2022-07-31T22:28:19.629Z,99741.81
2022-07-31T22:30:46.833Z,99744.19
2022-07-31T22:33:13.798Z,99746.59
2022-07-31T22:35:40.934Z,99735.75
2022-07-31T22:38:08.585Z,99728.69
2022-07-31T22:40:35.679Z,99751.09
2022-07-31T22:43:03.423Z,99747.28
2022-07-31T22:45:30.555Z,99759.16
2022-07-31T22:47:57.978Z,99754.25
2022-07-31T22:50:25.374Z,99755.59
2022-07-31T22:52:52.751Z,99755.84
2022-07-31T22:55:19.692Z,99723.25
2022-07-31T22:57:46.457Z,99751.44
2022-07-31T23:00:14.908Z,99759.03
2022-07-31T23:02:42.807Z,99745.16
2022-07-31T23:05:10.390Z,99759.25
2022-07-31T23:07:37.792Z,99767.59
2022-07-31T23:10:08.468Z,99749.03
2022-07-31T23:12:35.166Z,99701.66
2022-07-31T23:15:02.142Z,99767.94
2022-07-31T23:17:28.882Z,99781.97
2022-07-31T23:19:56.182Z,99780.34
2022-07-31T23:22:33.878Z,99779.47
2022-07-31T23:25:10.148Z,99787.22
2022-07-31T23:27:36.851Z,99779.31
2022-07-31T23:30:03.952Z,99777.09
2022-07-31T23:32:33.476Z,99719.78
2022-07-31T23:35:00.226Z,99777.06
2022-07-31T23:37:26.973Z,99768.25
2022-07-31T23:39:58.725Z,99787.53
2022-07-31T23:42:37.674Z,99794.81
2022-07-31T23:45:11.556Z,99797.00
2022-07-31T23:47:45.939Z,99791.84
2022-07-31T23:50:15.071Z,99796.41
2022-07-31T23:52:44.991Z,99778.91
2022-07-31T23:55:12.255Z,99787.94
2022-07-31T23:57:40.134Z,99792.25
